createdAt,value
2018-12-13T00:02:33.352Z,3.32
2018-12-13T00:07:33.282Z,3.36
2018-12-13T00:12:29.446Z,3.26
2018-12-13T00:17:25.617Z,3.37
2018-12-13T00:22:21.970Z,3.31
2018-12-13T00:27:18.114Z,3.49
2018-12-13T00:32:15.306Z,3.63
2018-12-13T00:37:11.577Z,3.53
2018-12-13T00:42:07.835Z,3.60
2018-12-13T00:47:05.236Z,3.44
2018-12-13T00:52:01.451Z,3.61
2018-12-13T00:56:57.679Z,3.36
2018-12-13T01:02:00.733Z,3.41
2018-12-13T01:06:57.091Z,3.10
2018-12-13T01:11:54.395Z,3.20
2018-12-13T01:16:50.515Z,2.89
2018-12-13T01:21:46.777Z,3.13
2018-12-13T01:26:42.995Z,2.78
2018-12-13T01:31:40.355Z,2.86
2018-12-13T01:36:36.575Z,2.91
2018-12-13T01:41:32.765Z,2.66
2018-12-13T01:46:29.642Z,2.46
2018-12-13T01:51:26.437Z,2.28
2018-12-13T01:56:23.234Z,2.32
2018-12-13T02:01:19.371Z,2.22
2018-12-13T02:06:15.458Z,2.23
2018-12-13T02:11:11.587Z,2.23
2018-12-13T02:16:08.625Z,2.16
2018-12-13T02:21:04.774Z,2.04
2018-12-13T02:26:00.867Z,1.87
2018-12-13T02:30:57.011Z,1.96
2018-12-13T02:35:53.153Z,1.91
2018-12-13T02:40:49.290Z,1.95
2018-12-13T02:45:45.380Z,1.84
2018-12-13T02:50:41.549Z,1.35
2018-12-13T02:55:37.682Z,1.41
2018-12-13T03:00:34.155Z,1.34
2018-12-13T03:05:30.277Z,1.43
2018-12-13T03:10:26.339Z,1.47
2018-12-13T03:15:22.455Z,1.35
2018-12-13T03:20:19.685Z,1.39
2018-12-13T03:25:15.792Z,1.25
2018-12-13T03:30:13.112Z,1.12
2018-12-13T03:35:09.257Z,1.14
2018-12-13T03:40:05.689Z,1.01
2018-12-13T03:45:01.879Z,0.97
2018-12-13T03:49:58.075Z,0.99
2018-12-13T03:54:54.210Z,1.06
2018-12-13T03:59:50.342Z,0.98
2018-12-13T04:04:48.636Z,0.88
2018-12-13T04:09:44.718Z,0.95
2018-12-13T04:14:41.850Z,0.91
2018-12-13T04:19:38.005Z,0.72
2018-12-13T04:24:34.354Z,0.87
2018-12-13T04:29:30.488Z,0.58
2018-12-13T04:34:26.700Z,0.68
2018-12-13T04:39:22.807Z,0.80
2018-12-13T04:44:18.980Z,0.64
2018-12-13T04:49:15.101Z,0.95
2018-12-13T04:54:11.209Z,0.80
2018-12-13T04:59:07.329Z,0.86
2018-12-13T05:04:03.492Z,0.94
2018-12-13T05:08:59.600Z,1.02
2018-12-13T05:13:55.774Z,0.84
2018-12-13T05:18:51.916Z,0.92
2018-12-13T05:23:48.013Z,1.09
2018-12-13T05:28:44.112Z,0.91
2018-12-13T05:33:40.205Z,1.07
2018-12-13T05:38:36.347Z,1.09
2018-12-13T05:43:32.454Z,1.00
2018-12-13T05:48:28.681Z,1.12
2018-12-13T05:53:24.775Z,1.15
2018-12-13T05:58:20.896Z,1.14
2018-12-13T06:03:18.116Z,1.14
2018-12-13T06:08:14.235Z,1.12
2018-12-13T06:13:10.411Z,1.20
2018-12-13T06:18:06.963Z,1.22
2018-12-13T06:23:03.416Z,1.27
2018-12-13T06:27:59.531Z,1.31
2018-12-13T06:32:55.638Z,1.55
2018-12-13T06:37:51.850Z,1.52
2018-12-13T06:42:47.982Z,1.53
2018-12-13T06:47:44.236Z,1.56
2018-12-13T06:52:40.307Z,1.69
2018-12-13T06:57:36.362Z,1.70
2018-12-13T07:02:33.240Z,1.69
2018-12-13T07:07:36.027Z,1.88
2018-12-13T07:12:34.117Z,1.84
2018-12-13T07:17:32.720Z,1.84
2018-12-13T07:22:30.690Z,1.78
2018-12-13T07:27:28.768Z,1.84
2018-12-13T07:32:29.372Z,1.82
2018-12-13T07:37:25.637Z,1.77
2018-12-13T07:42:21.729Z,2.07
2018-12-13T07:47:17.856Z,2.05
2018-12-13T07:52:14.016Z,2.11
2018-12-13T07:57:10.081Z,2.11
2018-12-13T08:02:07.492Z,2.24
2018-12-13T08:07:03.698Z,2.27
2018-12-13T08:11:59.848Z,2.40
2018-12-13T08:16:56.052Z,2.40
2018-12-13T08:21:52.249Z,2.42
2018-12-13T08:26:48.369Z,2.47
2018-12-13T08:31:47.592Z,2.59
2018-12-13T08:36:43.735Z,2.70
2018-12-13T08:41:39.849Z,2.59
2018-12-13T08:46:36.682Z,2.72
2018-12-13T08:51:33.021Z,2.72
2018-12-13T08:56:29.208Z,2.77
2018-12-13T09:01:25.438Z,2.79
2018-12-13T09:06:21.608Z,2.86
2018-12-13T09:11:19.157Z,2.99
2018-12-13T09:16:17.007Z,3.12
2018-12-13T09:21:14.291Z,3.25
2018-12-13T09:26:14.486Z,3.20
2018-12-13T09:31:11.526Z,3.09
2018-12-13T09:36:11.328Z,3.04
2018-12-13T09:41:08.931Z,3.14
2018-12-13T09:46:06.731Z,3.16
2018-12-13T09:51:03.819Z,3.24
2018-12-13T09:55:59.934Z,3.12
2018-12-13T10:00:56.007Z,3.27
2018-12-13T10:05:52.314Z,3.11
2018-12-13T10:10:48.381Z,3.36
2018-12-13T10:15:44.498Z,3.52
2018-12-13T10:20:40.617Z,3.56
2018-12-13T10:25:36.684Z,3.60
2018-12-13T10:30:33.738Z,3.67
2018-12-13T10:35:29.908Z,3.67
2018-12-13T10:40:26.512Z,3.77
2018-12-13T10:45:22.688Z,3.62
2018-12-13T10:50:18.787Z,3.77
2018-12-13T10:55:14.969Z,3.68
2018-12-13T11:00:14.345Z,3.87
2018-12-13T11:05:10.810Z,3.92
2018-12-13T11:10:08.162Z,4.12
2018-12-13T11:15:04.593Z,4.08
2018-12-13T11:20:00.680Z,4.05
2018-12-13T11:24:56.853Z,3.88
2018-12-13T11:30:05.177Z,4.11
2018-12-13T11:35:01.262Z,4.11
2018-12-13T11:39:57.366Z,4.18
2018-12-13T11:44:53.531Z,4.16
2018-12-13T11:49:49.589Z,4.22
2018-12-13T11:54:45.718Z,4.06
2018-12-13T11:59:41.858Z,4.23
2018-12-13T12:04:38.022Z,4.10
2018-12-13T12:09:34.249Z,4.24
2018-12-13T12:14:30.335Z,4.32
2018-12-13T12:19:26.368Z,4.35
2018-12-13T12:24:22.970Z,4.36
2018-12-13T12:29:19.102Z,4.29
2018-12-13T12:34:15.432Z,4.51
2018-12-13T12:39:11.496Z,4.35
2018-12-13T12:44:07.551Z,4.48
2018-12-13T12:49:03.674Z,4.63
2018-12-13T12:53:59.894Z,4.43
2018-12-13T12:58:56.065Z,4.50
2018-12-13T13:03:53.618Z,4.33
2018-12-13T13:08:49.777Z,4.33
2018-12-13T13:13:45.918Z,4.28
2018-12-13T13:18:42.002Z,4.27
2018-12-13T13:23:38.082Z,4.37
2018-12-13T13:28:34.450Z,4.07
2018-12-13T13:33:30.623Z,3.89
2018-12-13T13:38:26.754Z,3.90
2018-12-13T13:43:22.863Z,3.71
2018-12-13T13:48:18.994Z,3.85
2018-12-13T13:53:16.272Z,3.96
2018-12-13T13:58:12.765Z,3.94
2018-12-13T14:03:10.223Z,3.85
2018-12-13T14:08:06.861Z,3.80
2018-12-13T14:13:07.051Z,3.83
2018-12-13T14:18:03.584Z,3.78
2018-12-13T14:23:00.165Z,3.81
2018-12-13T14:27:56.598Z,3.70
2018-12-13T14:32:53.475Z,3.78
2018-12-13T14:37:49.567Z,3.84
2018-12-13T14:42:45.745Z,3.62
2018-12-13T14:47:41.865Z,3.70
2018-12-13T14:52:37.925Z,3.73
2018-12-13T14:57:34.027Z,3.64
2018-12-13T15:02:30.952Z,3.61
2018-12-13T15:07:27.036Z,3.50
2018-12-13T15:12:23.193Z,3.53
2018-12-13T15:17:19.374Z,3.46
2018-12-13T15:22:15.464Z,3.47
2018-12-13T15:27:11.532Z,3.46
2018-12-13T15:32:11.795Z,3.42
2018-12-13T15:37:10.260Z,3.40
2018-12-13T15:42:06.359Z,3.43
2018-12-13T15:47:02.422Z,3.28
2018-12-13T15:51:58.581Z,3.37
2018-12-13T15:56:54.633Z,3.32
2018-12-13T16:01:52.931Z,3.35
2018-12-13T16:06:49.035Z,3.28
2018-12-13T16:11:45.058Z,3.16
2018-12-13T16:16:41.125Z,3.19
2018-12-13T16:21:37.346Z,3.08
2018-12-13T16:26:34.978Z,3.15
2018-12-13T16:31:31.106Z,3.07
2018-12-13T16:36:27.265Z,3.18
2018-12-13T16:41:23.322Z,3.14
2018-12-13T16:46:19.371Z,3.09
2018-12-13T16:51:15.517Z,2.92
2018-12-13T16:56:11.660Z,2.86
2018-12-13T17:01:07.749Z,2.97
2018-12-13T17:06:04.117Z,2.98
2018-12-13T17:11:00.289Z,3.04
2018-12-13T17:15:56.330Z,2.98
2018-12-13T17:20:52.397Z,3.07
2018-12-13T17:25:48.461Z,3.12
2018-12-13T17:30:44.507Z,2.99
2018-12-13T17:35:40.554Z,3.05
2018-12-13T17:40:36.639Z,3.06
2018-12-13T17:45:32.788Z,2.91
2018-12-13T17:50:28.928Z,2.96
2018-12-13T17:55:25.018Z,2.90
2018-12-13T18:00:21.068Z,2.93
2018-12-13T18:05:17.103Z,2.83
2018-12-13T18:10:13.146Z,2.72
2018-12-13T18:15:09.295Z,2.58
2018-12-13T18:20:05.608Z,2.47
2018-12-13T18:25:01.865Z,2.55
2018-12-13T18:29:57.918Z,2.47
2018-12-13T18:34:53.963Z,2.65
2018-12-13T18:39:50.020Z,2.65
2018-12-13T18:44:46.049Z,2.64
2018-12-13T18:49:42.087Z,2.73
2018-12-13T18:54:38.208Z,2.76
2018-12-13T18:59:34.248Z,2.72
2018-12-13T19:04:30.277Z,2.73
2018-12-13T19:09:26.316Z,2.75
2018-12-13T19:14:22.354Z,2.72
2018-12-13T19:19:18.406Z,2.73
2018-12-13T19:24:14.440Z,2.67
2018-12-13T19:29:10.497Z,2.83
2018-12-13T19:34:06.544Z,2.79
2018-12-13T19:39:04.654Z,2.83
2018-12-13T19:44:01.461Z,2.96
2018-12-13T19:48:58.130Z,2.91
2018-12-13T19:53:54.829Z,2.88
2018-12-13T19:58:51.313Z,2.88
2018-12-13T20:03:47.985Z,2.91
2018-12-13T20:08:44.615Z,2.95
2018-12-13T20:13:41.234Z,2.80
2018-12-13T20:18:37.853Z,2.86
2018-12-13T20:23:34.492Z,2.70
2018-12-13T20:28:31.156Z,2.64
2018-12-13T20:33:27.791Z,2.66
2018-12-13T20:38:24.430Z,2.76
2018-12-13T20:43:20.787Z,2.71
2018-12-13T20:48:17.406Z,2.72
2018-12-13T20:53:13.973Z,2.54
2018-12-13T20:58:10.687Z,2.49
2018-12-13T21:03:06.719Z,2.24
2018-12-13T21:08:07.939Z,2.47
2018-12-13T21:13:04.074Z,2.31
2018-12-13T21:18:00.234Z,2.18
2018-12-13T21:22:56.262Z,1.97
2018-12-13T21:27:52.346Z,1.94
2018-12-13T21:32:49.399Z,1.90
2018-12-13T21:37:45.959Z,2.17
2018-12-13T21:42:42.458Z,2.07
2018-12-13T21:47:38.984Z,2.17
2018-12-13T21:52:35.636Z,2.24
2018-12-13T21:57:32.122Z,2.34
2018-12-13T22:02:28.937Z,2.43
2018-12-13T22:07:24.973Z,2.28
2018-12-13T22:12:21.007Z,2.36
2018-12-13T22:17:17.181Z,2.42
2018-12-13T22:22:14.055Z,2.16
2018-12-13T22:27:10.085Z,2.12
2018-12-13T22:32:09.325Z,2.06
2018-12-13T22:37:06.374Z,1.95
2018-12-13T22:42:02.772Z,1.96
2018-12-13T22:46:59.204Z,1.94
2018-12-13T22:51:55.946Z,1.75
2018-12-13T22:56:52.417Z,1.78
2018-12-13T23:01:49.491Z,1.51
2018-12-13T23:06:45.993Z,1.63
2018-12-13T23:11:42.309Z,1.73
2018-12-13T23:16:38.862Z,1.59
2018-12-13T23:21:35.558Z,1.65
2018-12-13T23:26:32.158Z,1.50
2018-12-13T23:31:28.554Z,1.36
2018-12-13T23:36:24.892Z,1.37
2018-12-13T23:41:21.296Z,1.35
2018-12-13T23:46:17.625Z,1.46
2018-12-13T23:51:13.909Z,1.34
2018-12-13T23:56:09.959Z,1.13
